Time;durP1;ratioP1;P1;durP2;ratioP2;P2;SDS_P1;SDS_P2;PMS_P1;PMS_P2;Temp;Humidity;BMP_temperature;BMP_pressure;BME280_temperature;BME280_humidity;BME280_pressure;Samples;Min_cycle;Max_cycle;Signal;HPM_P1;HPM_P2
2022/04/06 00:00:26;;;;;;;13.90;5.85;;;;;;;;;;5026969;28;20146;-69
2022/04/06 00:02:53;;;;;;;9.63;5.30;;;;;;;;;;5014395;28;20033;-69
2022/04/06 00:05:19;;;;;;;11.85;5.57;;;;;;;;;;5006475;28;20049;-72
2022/04/06 00:07:45;;;;;;;15.35;6.10;;;;;;;;;;5006661;28;20037;-69
2022/04/06 00:10:12;;;;;;;11.95;5.40;;;;;;;;;;5005410;28;20129;-69
2022/04/06 00:12:39;;;;;;;10.85;5.07;;;;;;;;;;5007025;28;20034;-69
2022/04/06 00:15:07;;;;;;;8.38;4.78;;;;;;;;;;5006730;28;20029;-69
2022/04/06 00:17:33;;;;;;;10.32;4.85;;;;;;;;;;5005439;28;20026;-69
2022/04/06 00:19:59;;;;;;;10.10;4.72;;;;;;;;;;5006451;28;20351;-69
2022/04/06 00:22:26;;;;;;;13.77;5.55;;;;;;;;;;5006473;28;20037;-69
2022/04/06 00:24:52;;;;;;;11.52;4.97;;;;;;;;;;5006860;28;20022;-70
2022/04/06 00:27:18;;;;;;;13.07;4.75;;;;;;;;;;5006546;28;20045;-69
2022/04/06 00:29:45;;;;;;;7.35;4.47;;;;;;;;;;5005193;28;20030;-69
2022/04/06 00:32:11;;;;;;;13.35;5.20;;;;;;;;;;5012550;28;20074;-69
2022/04/06 00:37:22;;;;;;;13.35;4.75;;;;;;;;;;5024426;28;20045;-70
2022/04/06 00:39:48;;;;;;;8.23;5.43;;;;;;;;;;5026347;28;20083;-69
2022/04/06 00:42:15;;;;;;;7.43;5.35;;;;;;;;;;5024086;28;20035;-69
2022/04/06 00:44:41;;;;;;;12.93;5.20;;;;;;;;;;5026213;28;20029;-69
2022/04/06 00:47:08;;;;;;;8.40;4.75;;;;;;;;;;5024857;28;20060;-71
2022/04/06 00:49:34;;;;;;;10.30;5.72;;;;;;;;;;5013846;28;20637;-68
2022/04/06 00:52:01;;;;;;;9.75;5.00;;;;;;;;;;5007040;28;20029;-72
2022/04/06 00:54:28;;;;;;;11.10;5.43;;;;;;;;;;5007593;28;20026;-69
2022/04/06 00:56:54;;;;;;;18.15;5.53;;;;;;;;;;5008614;28;20014;-69
2022/04/06 00:59:21;;;;;;;10.55;4.28;;;;;;;;;;5008437;28;20030;-70
2022/04/06 01:01:47;;;;;;;13.60;5.82;;;;;;;;;;5013018;28;20021;-69
2022/04/06 01:04:15;;;;;;;12.98;5.53;;;;;;;;;;5007719;28;20112;-69
2022/04/06 01:06:41;;;;;;;12.20;5.50;;;;;;;;;;5008167;28;20048;-69
2022/04/06 01:09:07;;;;;;;11.60;5.43;;;;;;;;;;5008395;28;20030;-69
2022/04/06 01:11:34;;;;;;;11.55;5.90;;;;;;;;;;5007178;28;20033;-69
2022/04/06 01:14:01;;;;;;;9.32;5.13;;;;;;;;;;5005560;28;20030;-69
2022/04/06 01:16:27;;;;;;;12.40;5.57;;;;;;;;;;5006195;28;20037;-69
2022/04/06 01:18:53;;;;;;;10.82;5.93;;;;;;;;;;5008314;28;20018;-69
2022/04/06 01:21:20;;;;;;;12.93;5.10;;;;;;;;;;5007942;28;20036;-69
2022/04/06 01:23:47;;;;;;;11.85;5.38;;;;;;;;;;5008503;28;20022;-69
2022/04/06 01:26:13;;;;;;;13.73;5.70;;;;;;;;;;5007905;28;20022;-70
2022/04/06 01:28:40;;;;;;;8.05;5.25;;;;;;;;;;5007871;28;20030;-69
2022/04/06 01:31:06;;;;;;;10.35;4.80;;;;;;;;;;5006532;28;20072;-69
2022/04/06 01:33:32;;;;;;;11.32;6.22;;;;;;;;;;5007872;28;20049;-69
2022/04/06 01:35:59;;;;;;;7.88;4.97;;;;;;;;;;5007692;28;20026;-69
2022/04/06 01:38:25;;;;;;;13.25;4.85;;;;;;;;;;5009673;28;20033;-73
2022/04/06 01:40:52;;;;;;;8.82;4.63;;;;;;;;;;5021499;28;20029;-69
2022/04/06 01:43:18;;;;;;;10.32;5.40;;;;;;;;;;5023093;28;20076;-70
2022/04/06 01:45:45;;;;;;;13.50;5.85;;;;;;;;;;5023208;28;20022;-69
2022/04/06 01:48:11;;;;;;;11.77;5.70;;;;;;;;;;5020934;28;20034;-69
2022/04/06 01:53:22;;;;;;;9.75;5.60;;;;;;;;;;5023025;28;20134;-69
2022/04/06 01:55:48;;;;;;;12.57;5.60;;;;;;;;;;5020884;28;20037;-69
2022/04/06 01:58:14;;;;;;;11.35;5.93;;;;;;;;;;5022706;28;20041;-69
2022/04/06 02:00:42;;;;;;;19.38;5.88;;;;;;;;;;5022252;28;20590;-69
2022/04/06 02:03:08;;;;;;;13.73;5.20;;;;;;;;;;5022298;28;20396;-74
2022/04/06 02:05:34;;;;;;;12.65;5.38;;;;;;;;;;5021128;28;20061;-69
2022/04/06 02:08:02;;;;;;;9.90;5.28;;;;;;;;;;5022229;28;20060;-69
2022/04/06 02:10:28;;;;;;;11.82;5.15;;;;;;;;;;5005764;28;20034;-69
2022/04/06 02:12:57;;;;;;;8.30;5.47;;;;;;;;;;5002454;28;20034;-70
2022/04/06 02:15:23;;;;;;;10.90;4.97;;;;;;;;;;5001045;28;20109;-69
2022/04/06 02:17:49;;;;;;;12.10;5.22;;;;;;;;;;5002867;28;20145;-69
2022/04/06 02:20:15;;;;;;;9.30;4.60;;;;;;;;;;5000462;28;20029;-69
2022/04/06 02:22:42;;;;;;;10.48;4.88;;;;;;;;;;5002910;28;20026;-69
2022/04/06 02:25:09;;;;;;;10.05;4.55;;;;;;;;;;5000414;28;20054;-69
2022/04/06 02:27:43;;;;;;;11.20;5.25;;;;;;;;;;5001766;28;20046;-69
2022/04/06 02:30:10;;;;;;;11.85;5.18;;;;;;;;;;5001150;28;20539;-69
2022/04/06 02:32:36;;;;;;;10.30;5.15;;;;;;;;;;5002512;28;20026;-70
2022/04/06 02:35:02;;;;;;;12.75;5.30;;;;;;;;;;5012896;28;20037;-69
2022/04/06 02:37:28;;;;;;;9.73;5.45;;;;;;;;;;5022312;28;20180;-69
2022/04/06 02:39:54;;;;;;;12.82;5.18;;;;;;;;;;5021941;28;20025;-70
2022/04/06 02:42:21;;;;;;;8.40;4.60;;;;;;;;;;5021920;28;20044;-69
2022/04/06 02:44:47;;;;;;;18.75;5.57;;;;;;;;;;5020520;28;20034;-70
2022/04/06 02:47:13;;;;;;;10.00;5.20;;;;;;;;;;5021253;28;20654;-69
2022/04/06 02:49:39;;;;;;;10.98;4.85;;;;;;;;;;5022136;28;20026;-70
2022/04/06 02:52:07;;;;;;;10.98;5.20;;;;;;;;;;5021943;28;20400;-69
2022/04/06 02:54:33;;;;;;;10.05;4.68;;;;;;;;;;5021539;28;20033;-69
2022/04/06 02:56:59;;;;;;;12.52;4.85;;;;;;;;;;5018888;28;20038;-69
2022/04/06 02:59:25;;;;;;;10.70;4.63;;;;;;;;;;5023207;28;20116;-69
2022/04/06 03:01:51;;;;;;;14.40;5.13;;;;;;;;;;5025633;28;20108;-69
2022/04/06 03:04:18;;;;;;;7.72;4.60;;;;;;;;;;5018067;28;20245;-69
2022/04/06 03:06:44;;;;;;;12.20;4.60;;;;;;;;;;5005743;28;20072;-70
2022/04/06 03:09:10;;;;;;;12.98;5.28;;;;;;;;;;5005923;28;20034;-72
2022/04/06 03:11:36;;;;;;;8.68;5.00;;;;;;;;;;5005976;28;20038;-70
2022/04/06 03:14:02;;;;;;;9.68;4.82;;;;;;;;;;5005612;28;20033;-69
2022/04/06 03:16:28;;;;;;;7.93;5.10;;;;;;;;;;5003785;28;20041;-69
2022/04/06 03:18:54;;;;;;;14.32;5.90;;;;;;;;;;5003332;28;20091;-69
2022/04/06 03:21:21;;;;;;;12.10;5.32;;;;;;;;;;5001526;28;20465;-69
2022/04/06 03:23:47;;;;;;;13.73;5.32;;;;;;;;;;5002898;28;20409;-69
2022/04/06 03:26:13;;;;;;;15.05;5.53;;;;;;;;;;5001662;28;20378;-69
2022/04/06 03:28:39;;;;;;;13.13;5.55;;;;;;;;;;5002870;28;20101;-69
2022/04/06 03:31:06;;;;;;;11.05;5.15;;;;;;;;;;5003198;28;20141;-70
2022/04/06 03:33:32;;;;;;;15.70;5.32;;;;;;;;;;5003722;28;20022;-69
2022/04/06 03:35:58;;;;;;;7.28;5.15;;;;;;;;;;5002392;28;20086;-69
2022/04/06 03:38:24;;;;;;;7.55;4.82;;;;;;;;;;5001203;28;20026;-69
2022/04/06 03:40:50;;;;;;;10.85;4.50;;;;;;;;;;5003510;28;20030;-70
2022/04/06 03:43:17;;;;;;;8.05;4.68;;;;;;;;;;5002806;28;20049;-69
2022/04/06 03:45:43;;;;;;;12.10;4.65;;;;;;;;;;5002723;28;20033;-69
2022/04/06 03:48:09;;;;;;;11.23;4.55;;;;;;;;;;5002464;28;20049;-69
2022/04/06 03:50:35;;;;;;;10.43;4.45;;;;;;;;;;5005361;28;20492;-69
2022/04/06 03:53:01;;;;;;;8.35;4.75;;;;;;;;;;5022220;28;20040;-70
2022/04/06 03:55:28;;;;;;;6.53;4.50;;;;;;;;;;5022179;28;20025;-69
2022/04/06 03:57:54;;;;;;;8.27;4.35;;;;;;;;;;5022596;28;20029;-69
2022/04/06 04:00:20;;;;;;;9.30;4.85;;;;;;;;;;5022308;28;20036;-69
2022/04/06 04:02:46;;;;;;;13.30;4.88;;;;;;;;;;5022294;28;20719;-69
2022/04/06 04:05:13;;;;;;;10.48;4.78;;;;;;;;;;5020696;28;20306;-69
2022/04/06 04:07:39;;;;;;;7.03;4.32;;;;;;;;;;5020669;28;20168;-69
2022/04/06 04:10:09;;;;;;;12.98;5.10;;;;;;;;;;5022155;28;20032;-69
2022/04/06 04:12:36;;;;;;;12.05;5.05;;;;;;;;;;5020802;28;20025;-69
2022/04/06 04:15:03;;;;;;;13.57;6.03;;;;;;;;;;5021820;28;20034;-70
2022/04/06 04:17:29;;;;;;;9.75;4.82;;;;;;;;;;5020468;28;20039;-69
2022/04/06 04:19:55;;;;;;;10.30;5.63;;;;;;;;;;5021460;28;20030;-70
2022/04/06 04:22:22;;;;;;;12.25;5.60;;;;;;;;;;5001070;28;20469;-69
2022/04/06 04:24:48;;;;;;;17.80;5.65;;;;;;;;;;5002343;28;20084;-69
2022/04/06 04:27:14;;;;;;;14.18;6.43;;;;;;;;;;5000543;28;20033;-70
2022/04/06 04:29:40;;;;;;;18.90;6.13;;;;;;;;;;5002003;28;20045;-69
2022/04/06 04:32:07;;;;;;;11.02;5.90;;;;;;;;;;5002431;28;20026;-69
2022/04/06 04:34:33;;;;;;;14.75;6.18;;;;;;;;;;5002081;28;20366;-69
2022/04/06 04:36:59;;;;;;;9.77;5.78;;;;;;;;;;5000305;28;20735;-70
2022/04/06 04:39:25;;;;;;;16.02;6.25;;;;;;;;;;5001410;28;20026;-69
2022/04/06 04:41:51;;;;;;;14.68;6.07;;;;;;;;;;5001847;28;20038;-69
2022/04/06 04:44:17;;;;;;;12.60;7.25;;;;;;;;;;5000224;28;20037;-69
2022/04/06 04:46:44;;;;;;;19.38;7.18;;;;;;;;;;5001466;28;20049;-72
2022/04/06 04:49:10;;;;;;;14.95;7.18;;;;;;;;;;5020657;28;20037;-69
2022/04/06 04:51:36;;;;;;;14.95;6.53;;;;;;;;;;5019341;28;20029;-69
2022/04/06 04:54:02;;;;;;;16.80;6.75;;;;;;;;;;5021364;28;20022;-69
2022/04/06 04:56:30;;;;;;;17.55;6.75;;;;;;;;;;5020887;28;20803;-69
2022/04/06 04:58:56;;;;;;;16.15;7.00;;;;;;;;;;5020852;28;20026;-69
2022/04/06 05:01:23;;;;;;;31.30;15.13;;;;;;;;;;5019477;28;20037;-69
2022/04/06 05:03:49;;;;;;;41.58;23.00;;;;;;;;;;5021145;28;20604;-68
2022/04/06 05:06:16;;;;;;;41.35;23.65;;;;;;;;;;5020979;28;20065;-70
2022/04/06 05:08:42;;;;;;;34.15;20.67;;;;;;;;;;5021172;28;20045;-69
2022/04/06 05:11:08;;;;;;;28.25;17.80;;;;;;;;;;5018002;28;20079;-70
2022/04/06 05:13:34;;;;;;;32.97;19.38;;;;;;;;;;5001230;28;20475;-69
2022/04/06 05:16:00;;;;;;;38.83;23.63;;;;;;;;;;4999847;28;20034;-69
2022/04/06 05:18:29;;;;;;;40.60;23.10;;;;;;;;;;5000961;28;20151;-69
2022/04/06 05:20:55;;;;;;;28.95;17.20;;;;;;;;;;4999206;28;20479;-71
2022/04/06 05:23:21;;;;;;;27.85;16.60;;;;;;;;;;4997101;28;20030;-71
2022/04/06 05:25:47;;;;;;;30.33;15.45;;;;;;;;;;5001313;28;20030;-71
2022/04/06 05:28:15;;;;;;;25.35;14.18;;;;;;;;;;5000584;28;20111;-71
2022/04/06 05:30:42;;;;;;;22.50;14.80;;;;;;;;;;5000821;28;20084;-71
2022/04/06 05:33:09;;;;;;;26.73;14.68;;;;;;;;;;5000452;28;20030;-71
2022/04/06 05:35:35;;;;;;;29.73;14.32;;;;;;;;;;4999272;28;20026;-71
2022/04/06 05:38:01;;;;;;;25.58;13.77;;;;;;;;;;5000549;28;20053;-71
2022/04/06 05:40:27;;;;;;;24.63;15.38;;;;;;;;;;5000602;28;20037;-71
2022/04/06 05:42:53;;;;;;;30.15;15.55;;;;;;;;;;5016834;28;20783;-70
2022/04/06 05:45:19;;;;;;;27.70;16.42;;;;;;;;;;5020676;28;20120;-69
2022/04/06 05:47:46;;;;;;;27.92;18.10;;;;;;;;;;5019180;28;20037;-71
2022/04/06 05:50:13;;;;;;;25.83;15.82;;;;;;;;;;5019048;28;20155;-69
2022/04/06 05:52:40;;;;;;;26.63;16.05;;;;;;;;;;5020250;28;20068;-70
2022/04/06 05:55:06;;;;;;;24.85;14.77;;;;;;;;;;5020069;28;20064;-69
2022/04/06 05:57:32;;;;;;;29.60;15.00;;;;;;;;;;5019978;28;20057;-70
2022/04/06 05:59:58;;;;;;;27.15;14.18;;;;;;;;;;5019546;28;20033;-69
2022/04/06 06:02:25;;;;;;;27.65;15.10;;;;;;;;;;5015929;28;20618;-73
2022/04/06 06:04:53;;;;;;;23.40;14.82;;;;;;;;;;4999065;28;20092;-72
2022/04/06 06:07:20;;;;;;;44.67;15.40;;;;;;;;;;4999351;28;20041;-73
2022/04/06 06:09:46;;;;;;;137.40;21.35;;;;;;;;;;5000331;28;20034;-72
2022/04/06 06:12:13;;;;;;;210.60;26.02;;;;;;;;;;5000194;28;20045;-72
2022/04/06 06:14:39;;;;;;;48.35;16.88;;;;;;;;;;4999933;28;20025;-72
2022/04/06 06:17:05;;;;;;;43.03;17.42;;;;;;;;;;4999012;28;20030;-72
2022/04/06 06:19:31;;;;;;;58.67;17.40;;;;;;;;;;5000081;28;20072;-74
2022/04/06 06:21:57;;;;;;;43.45;15.88;;;;;;;;;;4998450;28;20072;-71
2022/04/06 06:24:24;;;;;;;85.00;18.10;;;;;;;;;;5000132;28;20085;-71
2022/04/06 06:26:50;;;;;;;29.50;14.50;;;;;;;;;;4999650;28;20029;-71
2022/04/06 06:29:17;;;;;;;28.77;14.05;;;;;;;;;;4998451;28;20149;-72
2022/04/06 06:31:43;;;;;;;36.53;15.95;;;;;;;;;;4999070;28;20875;-73
2022/04/06 06:34:10;;;;;;;42.25;15.02;;;;;;;;;;5017808;28;20030;-72
2022/04/06 06:36:36;;;;;;;36.67;14.18;;;;;;;;;;5007548;28;20026;-73
2022/04/06 06:39:03;;;;;;;44.63;16.02;;;;;;;;;;5016438;28;20042;-71
2022/04/06 06:41:32;;;;;;;28.70;14.63;;;;;;;;;;5020339;28;20029;-71
2022/04/06 06:43:58;;;;;;;20.02;11.65;;;;;;;;;;5018310;28;20030;-71
2022/04/06 06:46:25;;;;;;;12.70;10.10;;;;;;;;;;5021383;28;20107;-74
2022/04/06 06:49:00;;;;;;;16.95;11.43;;;;;;;;;;5022939;28;20798;-72
2022/04/06 06:51:28;;;;;;;21.23;10.98;;;;;;;;;;5021454;28;20029;-71
2022/04/06 06:53:55;;;;;;;23.27;9.70;;;;;;;;;;5019013;28;20057;-70
2022/04/06 06:56:21;;;;;;;25.13;10.73;;;;;;;;;;5003664;28;20022;-70
2022/04/06 06:58:47;;;;;;;23.40;9.55;;;;;;;;;;5004666;28;20082;-71
2022/04/06 07:01:13;;;;;;;17.50;9.10;;;;;;;;;;5005402;28;20104;-71
2022/04/06 07:03:39;;;;;;;18.70;9.15;;;;;;;;;;5020936;28;20033;-71
2022/04/06 07:06:05;;;;;;;25.38;9.10;;;;;;;;;;5021262;28;20046;-71
2022/04/06 07:08:31;;;;;;;15.95;8.35;;;;;;;;;;5023113;28;20045;-71
2022/04/06 07:10:57;;;;;;;17.25;8.25;;;;;;;;;;5016362;28;20076;-71
2022/04/06 07:13:25;;;;;;;18.58;8.40;;;;;;;;;;5006567;28;20025;-76
2022/04/06 07:15:51;;;;;;;26.27;11.40;;;;;;;;;;5020784;28;20025;-72
2022/04/06 07:18:20;;;;;;;17.17;9.20;;;;;;;;;;5008432;28;20034;-72
2022/04/06 07:20:46;;;;;;;17.75;9.50;;;;;;;;;;5001229;28;20030;-71
2022/04/06 07:23:12;;;;;;;14.98;9.10;;;;;;;;;;5017763;28;20064;-71
2022/04/06 07:25:40;;;;;;;20.05;10.32;;;;;;;;;;5020083;28;20136;-71
2022/04/06 07:28:06;;;;;;;27.50;10.40;;;;;;;;;;5018686;28;20041;-75
2022/04/06 07:30:32;;;;;;;22.80;9.93;;;;;;;;;;5010658;28;20026;-76
2022/04/06 07:32:58;;;;;;;21.52;9.43;;;;;;;;;;5010837;28;20034;-72
2022/04/06 07:35:25;;;;;;;21.17;9.57;;;;;;;;;;5002304;28;20060;-73
2022/04/06 07:37:52;;;;;;;15.38;7.88;;;;;;;;;;5012238;28;20037;-71
2022/04/06 07:40:19;;;;;;;21.88;8.00;;;;;;;;;;5013619;28;20025;-72
2022/04/06 07:42:49;;;;;;;24.27;9.15;;;;;;;;;;5017293;28;20022;-72
2022/04/06 07:45:17;;;;;;;23.55;7.93;;;;;;;;;;5001972;28;20056;-74
2022/04/06 07:47:43;;;;;;;17.23;7.93;;;;;;;;;;5001676;28;20599;-75
2022/04/06 07:50:10;;;;;;;21.63;8.90;;;;;;;;;;5001064;28;20076;-71
2022/04/06 07:52:36;;;;;;;22.48;8.65;;;;;;;;;;5006959;28;20034;-73
2022/04/06 07:55:04;;;;;;;19.23;8.20;;;;;;;;;;5017232;28;20097;-72
2022/04/06 07:57:30;;;;;;;16.42;8.48;;;;;;;;;;5016976;28;20356;-72
2022/04/06 07:59:57;;;;;;;22.10;8.32;;;;;;;;;;5021687;28;20105;-71
2022/04/06 08:02:23;;;;;;;20.55;8.73;;;;;;;;;;5020473;28;20049;-71
2022/04/06 08:04:53;;;;;;;18.35;7.22;;;;;;;;;;5021707;28;20040;-72
2022/04/06 08:07:19;;;;;;;22.25;7.50;;;;;;;;;;5019454;28;20061;-71
2022/04/06 08:09:46;;;;;;;21.27;8.15;;;;;;;;;;5016710;28;20470;-71
2022/04/06 08:12:12;;;;;;;19.48;7.93;;;;;;;;;;5006554;28;20121;-71
2022/04/06 08:14:38;;;;;;;16.42;6.82;;;;;;;;;;5015998;28;20029;-72
2022/04/06 08:17:04;;;;;;;17.70;7.22;;;;;;;;;;5006993;28;20033;-71
2022/04/06 08:19:31;;;;;;;22.67;9.65;;;;;;;;;;5020931;28;20026;-72
2022/04/06 08:21:57;;;;;;;29.95;9.32;;;;;;;;;;5019442;28;20039;-71
2022/04/06 08:24:23;;;;;;;22.35;9.32;;;;;;;;;;5021123;28;20028;-71
2022/04/06 08:26:49;;;;;;;21.30;10.35;;;;;;;;;;5019040;28;20044;-71
2022/04/06 08:29:15;;;;;;;23.50;8.85;;;;;;;;;;5019053;28;20041;-73
2022/04/06 08:31:42;;;;;;;25.10;8.00;;;;;;;;;;5011530;28;20037;-74
2022/04/06 08:34:08;;;;;;;22.48;9.82;;;;;;;;;;5010376;28;20041;-75
2022/04/06 08:36:34;;;;;;;22.08;8.63;;;;;;;;;;5015806;28;20132;-71
2022/04/06 08:39:02;;;;;;;22.48;8.02;;;;;;;;;;5001924;28;20112;-71
2022/04/06 08:41:30;;;;;;;13.70;6.40;;;;;;;;;;5017568;28;20474;-71
2022/04/06 08:43:59;;;;;;;12.60;6.45;;;;;;;;;;5005325;28;20610;-78
2022/04/06 08:46:26;;;;;;;21.88;7.35;;;;;;;;;;5019709;28;20029;-77
2022/04/06 08:48:52;;;;;;;16.80;6.63;;;;;;;;;;5011203;28;20025;-72
2022/04/06 08:51:19;;;;;;;12.50;6.05;;;;;;;;;;5002716;28;20137;-72
2022/04/06 08:53:46;;;;;;;17.55;6.25;;;;;;;;;;5007677;28;20413;-72
2022/04/06 08:56:13;;;;;;;13.40;5.93;;;;;;;;;;5001468;28;20067;-80
2022/04/06 08:58:39;;;;;;;16.27;5.50;;;;;;;;;;5004793;28;20040;-72
2022/04/06 09:01:05;;;;;;;20.02;5.90;;;;;;;;;;5010676;28;20431;-84
2022/04/06 09:03:32;;;;;;;19.80;6.43;;;;;;;;;;5002665;28;20026;-72
2022/04/06 09:06:05;;;;;;;19.25;7.10;;;;;;;;;;5016166;28;20676;-72
2022/04/06 09:08:42;;;;;;;16.05;7.15;;;;;;;;;;5017770;28;20053;-72
2022/04/06 09:11:29;;;;;;;16.15;6.35;;;;;;;;;;5002692;28;20037;-72
2022/04/06 09:14:00;;;;;;;19.60;7.03;;;;;;;;;;5015960;28;20062;-72
2022/04/06 09:16:34;;;;;;;19.35;8.20;;;;;;;;;;5017129;28;20025;-72
2022/04/06 09:19:13;;;;;;;18.92;9.20;;;;;;;;;;5013418;28;20061;-71
2022/04/06 09:21:46;;;;;;;24.13;8.50;;;;;;;;;;5008438;28;20037;-72
2022/04/06 09:24:16;;;;;;;20.08;9.07;;;;;;;;;;5002024;28;20033;-72
2022/04/06 09:26:42;;;;;;;13.05;8.10;;;;;;;;;;5018439;28;20029;-73
2022/04/06 09:29:12;;;;;;;17.67;8.80;;;;;;;;;;5011588;28;20034;-74
2022/04/06 09:31:39;;;;;;;22.00;8.80;;;;;;;;;;5020120;28;20025;-71
2022/04/06 09:34:05;;;;;;;22.05;8.73;;;;;;;;;;5012588;28;20045;-75
2022/04/06 09:36:34;;;;;;;19.80;8.15;;;;;;;;;;4998323;28;20025;-75
2022/04/06 09:39:00;;;;;;;15.70;7.88;;;;;;;;;;4999975;28;20486;-72
2022/04/06 09:41:27;;;;;;;17.98;8.82;;;;;;;;;;5000484;28;20030;-73
2022/04/06 09:43:54;;;;;;;20.85;8.88;;;;;;;;;;5003996;28;20030;-69
2022/04/06 09:49:08;;;;;;;18.60;7.93;;;;;;;;;;5011124;28;20103;-70
2022/04/06 09:51:35;;;;;;;19.13;9.95;;;;;;;;;;5007493;28;20021;-72
2022/04/06 09:54:03;;;;;;;18.60;9.02;;;;;;;;;;4998556;28;20037;-69
2022/04/06 09:56:30;;;;;;;13.02;8.00;;;;;;;;;;5012535;28;20073;-72
2022/04/06 09:58:57;;;;;;;20.83;8.82;;;;;;;;;;5017600;28;20135;-72
2022/04/06 10:01:25;;;;;;;18.25;8.57;;;;;;;;;;5011283;28;20825;-71
2022/04/06 10:03:53;;;;;;;13.90;7.80;;;;;;;;;;5009480;28;20029;-78
2022/04/06 10:06:20;;;;;;;14.65;7.97;;;;;;;;;;4998923;28;20111;-72
2022/04/06 10:08:46;;;;;;;15.77;7.45;;;;;;;;;;4999451;28;20057;-72
2022/04/06 10:11:12;;;;;;;22.45;8.80;;;;;;;;;;5003203;28;20021;-71
2022/04/06 10:13:42;;;;;;;18.20;8.15;;;;;;;;;;5001876;28;20746;-71
2022/04/06 10:16:11;;;;;;;18.92;7.57;;;;;;;;;;4998872;28;20037;-72
2022/04/06 10:18:37;;;;;;;13.90;7.18;;;;;;;;;;4999913;28;20026;-70
2022/04/06 10:21:10;;;;;;;13.68;6.65;;;;;;;;;;5001740;28;20066;-71
2022/04/06 10:23:36;;;;;;;15.50;6.93;;;;;;;;;;5003016;28;20080;-76
2022/04/06 10:26:07;;;;;;;14.63;7.22;;;;;;;;;;4999281;28;20053;-71
2022/04/06 10:28:34;;;;;;;16.00;6.50;;;;;;;;;;5004198;28;20095;-72
2022/04/06 10:31:12;;;;;;;20.80;7.63;;;;;;;;;;5003659;28;20060;-71
2022/04/06 10:33:39;;;;;;;23.23;7.10;;;;;;;;;;5017345;28;20038;-76
2022/04/06 10:36:29;;;;;;;17.10;6.97;;;;;;;;;;5008648;28;20030;-72
2022/04/06 10:39:05;;;;;;;18.05;6.25;;;;;;;;;;5003102;28;20037;-72
2022/04/06 10:41:32;;;;;;;20.15;6.28;;;;;;;;;;5005850;28;20026;-82
2022/04/06 10:43:58;;;;;;;24.45;5.63;;;;;;;;;;5007209;28;20021;-79
2022/04/06 10:46:38;;;;;;;15.02;5.05;;;;;;;;;;5010848;28;20022;-71
2022/04/06 10:49:07;;;;;;;12.07;4.93;;;;;;;;;;5006145;28;20037;-71
2022/04/06 10:51:35;;;;;;;25.08;5.75;;;;;;;;;;5019320;28;20458;-69
2022/04/06 10:54:22;;;;;;;17.50;5.93;;;;;;;;;;4999000;28;20028;-69
2022/04/06 10:56:51;;;;;;;23.23;5.90;;;;;;;;;;5009689;28;20041;-70
2022/04/06 10:59:17;;;;;;;14.20;7.35;;;;;;;;;;5008161;28;20025;-68
2022/04/06 11:01:46;;;;;;;17.23;8.57;;;;;;;;;;5003849;28;20905;-70
2022/04/06 11:04:20;;;;;;;24.55;8.25;;;;;;;;;;5012447;28;20064;-69
2022/04/06 11:06:49;;;;;;;28.35;7.80;;;;;;;;;;5015721;28;20081;-69
2022/04/06 11:12:22;;;;;;;15.75;6.22;;;;;;;;;;5019857;28;20064;-69
2022/04/06 11:14:50;;;;;;;21.27;6.60;;;;;;;;;;5020139;28;20026;-69
2022/04/06 11:17:38;;;;;;;14.93;5.57;;;;;;;;;;5019664;28;20025;-69
2022/04/06 11:20:07;;;;;;;15.57;5.18;;;;;;;;;;5021638;28;20022;-71
2022/04/06 11:22:33;;;;;;;20.50;7.20;;;;;;;;;;5024477;28;20037;-69
2022/04/06 11:25:00;;;;;;;12.27;5.50;;;;;;;;;;5023091;28;20036;-68
2022/04/06 11:27:30;;;;;;;14.00;5.03;;;;;;;;;;5024754;28;20044;-68
2022/04/06 11:29:59;;;;;;;12.25;4.43;;;;;;;;;;5023282;28;20017;-69
2022/04/06 11:32:25;;;;;;;16.75;5.85;;;;;;;;;;5024398;28;20060;-69
2022/04/06 11:34:51;;;;;;;12.52;6.00;;;;;;;;;;5022970;28;20030;-68
2022/04/06 11:37:18;;;;;;;22.75;7.10;;;;;;;;;;5024601;28;20031;-69
2022/04/06 11:39:44;;;;;;;14.27;5.70;;;;;;;;;;5024640;28;20030;-77
2022/04/06 11:42:20;;;;;;;15.90;4.82;;;;;;;;;;5023971;28;20052;-70
2022/04/06 11:44:46;;;;;;;15.93;5.55;;;;;;;;;;5023977;28;20463;-68
2022/04/06 11:47:12;;;;;;;14.40;4.75;;;;;;;;;;5022875;28;20508;-68
2022/04/06 11:49:38;;;;;;;11.90;4.88;;;;;;;;;;5024652;28;20040;-68
2022/04/06 11:52:05;;;;;;;12.25;4.53;;;;;;;;;;5024673;28;20022;-68
2022/04/06 11:54:32;;;;;;;10.23;5.03;;;;;;;;;;5023786;28;20026;-68
2022/04/06 11:56:58;;;;;;;14.43;4.72;;;;;;;;;;5022543;28;20568;-69
2022/04/06 11:59:25;;;;;;;10.55;4.93;;;;;;;;;;5023706;28;20606;-69
2022/04/06 12:01:52;;;;;;;13.40;4.93;;;;;;;;;;5024071;28;20112;-69
2022/04/06 12:04:24;;;;;;;11.00;4.50;;;;;;;;;;5023985;28;20033;-69
2022/04/06 12:06:52;;;;;;;12.07;4.28;;;;;;;;;;5023746;28;20029;-68
2022/04/06 12:09:18;;;;;;;14.65;4.50;;;;;;;;;;5022659;28;20025;-69
2022/04/06 12:11:49;;;;;;;10.30;4.25;;;;;;;;;;5023770;28;20045;-77
2022/04/06 12:14:16;;;;;;;13.15;4.72;;;;;;;;;;5024092;28;20025;-69
2022/04/06 12:16:43;;;;;;;14.48;5.00;;;;;;;;;;5023738;28;20033;-69
2022/04/06 12:19:13;;;;;;;12.82;4.25;;;;;;;;;;5023362;28;20029;-69
2022/04/06 12:21:46;;;;;;;11.27;4.72;;;;;;;;;;5022597;28;20029;-69
2022/04/06 12:24:13;;;;;;;12.63;4.57;;;;;;;;;;5023380;28;20065;-71
2022/04/06 12:26:45;;;;;;;13.38;4.57;;;;;;;;;;5023319;28;20034;-70
2022/04/06 12:29:15;;;;;;;9.85;4.50;;;;;;;;;;5023573;28;20166;-69
2022/04/06 12:31:42;;;;;;;9.70;4.13;;;;;;;;;;5021386;28;20026;-68
2022/04/06 12:34:09;;;;;;;11.48;4.57;;;;;;;;;;5023382;28;20091;-69
2022/04/06 12:36:35;;;;;;;20.80;4.88;;;;;;;;;;5023593;28;20555;-69
2022/04/06 12:39:01;;;;;;;19.80;4.85;;;;;;;;;;5023624;28;20095;-68
2022/04/06 12:41:28;;;;;;;9.30;4.28;;;;;;;;;;5022002;28;20022;-68
2022/04/06 12:43:55;;;;;;;7.80;3.90;;;;;;;;;;5023465;28;20123;-68
2022/04/06 12:46:36;;;;;;;11.45;4.60;;;;;;;;;;5023275;28;20022;-68
2022/04/06 12:49:18;;;;;;;7.83;3.47;;;;;;;;;;5023184;28;20091;-68
2022/04/06 12:51:44;;;;;;;11.18;4.25;;;;;;;;;;5022445;28;20669;-70
2022/04/06 12:54:10;;;;;;;8.85;3.90;;;;;;;;;;5022855;28;20558;-68
2022/04/06 12:56:36;;;;;;;13.35;3.90;;;;;;;;;;5023242;28;20029;-69
2022/04/06 12:59:07;;;;;;;13.20;3.65;;;;;;;;;;5023175;28;20025;-68
2022/04/06 13:01:33;;;;;;;17.15;4.18;;;;;;;;;;5022759;28;20424;-68
2022/04/06 13:03:59;;;;;;;7.40;4.05;;;;;;;;;;5019187;28;20041;-69
2022/04/06 13:06:26;;;;;;;8.93;3.50;;;;;;;;;;5017646;28;20053;-69
2022/04/06 13:08:53;;;;;;;13.20;3.70;;;;;;;;;;5022447;28;20034;-69
2022/04/06 13:11:19;;;;;;;10.45;3.72;;;;;;;;;;5023097;28;20112;-68
2022/04/06 13:13:45;;;;;;;9.55;3.67;;;;;;;;;;5022939;28;20037;-69
2022/04/06 13:16:11;;;;;;;7.40;3.50;;;;;;;;;;5022840;28;20022;-68
2022/04/06 13:18:37;;;;;;;8.93;3.83;;;;;;;;;;5020823;28;20036;-69
2022/04/06 13:21:03;;;;;;;7.57;3.40;;;;;;;;;;5022755;28;20029;-68
2022/04/06 13:23:29;;;;;;;12.73;4.95;;;;;;;;;;5022943;28;20030;-69
2022/04/06 13:25:55;;;;;;;9.45;3.88;;;;;;;;;;5022513;28;20033;-69
2022/04/06 13:28:21;;;;;;;11.88;3.67;;;;;;;;;;5022591;28;20033;-69
2022/04/06 13:30:48;;;;;;;14.82;4.15;;;;;;;;;;5020819;28;20033;-68
2022/04/06 13:33:14;;;;;;;8.80;3.65;;;;;;;;;;5022273;28;20677;-70
2022/04/06 13:35:40;;;;;;;7.45;3.60;;;;;;;;;;5022530;28;20057;-68
2022/04/06 13:38:06;;;;;;;9.57;4.18;;;;;;;;;;5022460;28;20406;-68
2022/04/06 13:40:33;;;;;;;14.77;4.07;;;;;;;;;;5021847;28;20432;-68
2022/04/06 13:42:59;;;;;;;12.40;3.95;;;;;;;;;;5022192;28;20026;-69
2022/04/06 13:45:26;;;;;;;12.73;3.90;;;;;;;;;;5018812;28;20036;-69
2022/04/06 13:47:52;;;;;;;13.13;4.10;;;;;;;;;;5021853;28;20045;-68
2022/04/06 13:50:20;;;;;;;12.98;3.78;;;;;;;;;;5021699;28;20025;-69
2022/04/06 13:52:47;;;;;;;10.40;3.95;;;;;;;;;;5021638;28;20027;-69
2022/04/06 13:55:17;;;;;;;13.32;4.03;;;;;;;;;;5020768;28;20052;-68
2022/04/06 13:57:44;;;;;;;10.50;4.13;;;;;;;;;;5020599;28;20191;-74
2022/04/06 14:00:10;;;;;;;15.23;5.20;;;;;;;;;;5021826;28;20037;-69
2022/04/06 14:02:37;;;;;;;14.27;4.07;;;;;;;;;;5022666;28;20020;-69
2022/04/06 14:05:04;;;;;;;11.60;4.22;;;;;;;;;;5021991;28;20178;-68
2022/04/06 14:07:30;;;;;;;16.50;4.50;;;;;;;;;;5020138;28;20049;-69
2022/04/06 14:09:56;;;;;;;13.30;4.32;;;;;;;;;;5018530;28;20128;-69
2022/04/06 14:12:22;;;;;;;17.75;3.97;;;;;;;;;;5016543;28;20059;-68
2022/04/06 14:14:48;;;;;;;11.88;4.25;;;;;;;;;;5019553;28;20029;-74
2022/04/06 14:17:15;;;;;;;20.90;5.20;;;;;;;;;;5019172;28;20048;-73
2022/04/06 14:19:41;;;;;;;18.65;4.53;;;;;;;;;;5018366;28;20033;-68
2022/04/06 14:22:07;;;;;;;14.95;4.18;;;;;;;;;;5015584;28;20079;-68
2022/04/06 14:24:33;;;;;;;12.93;4.00;;;;;;;;;;5019263;28;20132;-80
2022/04/06 14:27:01;;;;;;;15.23;4.15;;;;;;;;;;5019307;28;20571;-68
2022/04/06 14:29:27;;;;;;;24.42;4.70;;;;;;;;;;5015732;28;20061;-68
2022/04/06 14:31:53;;;;;;;23.08;3.65;;;;;;;;;;5002808;28;20021;-68
2022/04/06 14:34:19;;;;;;;18.05;4.20;;;;;;;;;;5002099;28;20037;-68
2022/04/06 14:36:46;;;;;;;11.40;3.80;;;;;;;;;;4999023;28;20022;-68
2022/04/06 14:39:12;;;;;;;16.42;3.97;;;;;;;;;;4998604;28;20026;-69